createdAt,value
2022-10-09T00:05:36.553Z,97.31
2022-10-09T00:11:38.588Z,97.37
2022-10-09T00:17:40.565Z,98.38
2022-10-09T00:23:42.463Z,100.00
2022-10-09T00:29:44.394Z,99.02
2022-10-09T00:35:46.943Z,98.41
2022-10-09T00:41:48.802Z,99.14
2022-10-09T00:47:59.866Z,100.00
2022-10-09T00:54:06.731Z,100.00
2022-10-09T01:00:13.034Z,100.00
2022-10-09T01:06:41.702Z,99.71
2022-10-09T01:13:29.111Z,100.00
2022-10-09T01:20:26.237Z,100.00
2022-10-09T01:27:05.660Z,100.00
2022-10-09T01:33:07.855Z,100.00
2022-10-09T01:39:14.901Z,100.00
2022-10-09T01:45:16.913Z,100.00
2022-10-09T01:51:25.874Z,98.80
2022-10-09T01:58:01.670Z,98.41
2022-10-09T02:04:08.582Z,97.97
2022-10-09T02:10:11.081Z,97.49
2022-10-09T02:16:39.633Z,97.29
2022-10-09T02:22:42.028Z,98.06
2022-10-09T02:28:46.119Z,97.68
2022-10-09T02:34:48.184Z,97.64
2022-10-09T02:40:50.175Z,98.60
2022-10-09T02:46:52.127Z,99.74
2022-10-09T02:52:54.094Z,100.00
2022-10-09T02:58:56.688Z,100.00
2022-10-09T03:04:58.838Z,100.00
2022-10-09T03:11:00.719Z,100.00
2022-10-09T03:17:02.615Z,99.45
2022-10-09T03:23:04.813Z,100.00
2022-10-09T03:29:06.671Z,100.00
2022-10-09T03:35:09.233Z,100.00
2022-10-09T03:41:11.245Z,99.44
2022-10-09T03:47:13.232Z,99.83
2022-10-09T03:53:16.404Z,98.33
2022-10-09T03:59:18.261Z,99.19
2022-10-09T04:05:20.664Z,99.77
2022-10-09T04:11:25.581Z,99.28
2022-10-09T04:17:27.479Z,98.48
2022-10-09T04:23:29.362Z,97.16
2022-10-09T04:29:31.319Z,96.79
2022-10-09T04:35:33.190Z,95.05
2022-10-09T04:41:38.356Z,95.03
2022-10-09T04:47:40.748Z,94.42
2022-10-09T04:53:43.219Z,94.77
2022-10-09T05:06:16.913Z,96.28
2022-10-09T05:12:18.792Z,96.11
2022-10-09T05:18:20.649Z,95.91
2022-10-09T05:24:22.618Z,97.16
2022-10-09T05:30:24.491Z,99.76
2022-10-09T05:36:26.476Z,98.26
2022-10-09T05:42:28.526Z,98.17
2022-10-09T05:49:21.224Z,98.28
2022-10-09T05:55:23.106Z,98.37
2022-10-09T06:01:28.658Z,98.03
2022-10-09T06:07:30.936Z,98.19
2022-10-09T06:13:35.800Z,98.91
2022-10-09T06:19:37.865Z,97.21
2022-10-09T06:25:39.842Z,96.50
2022-10-09T06:31:41.935Z,95.94
2022-10-09T06:37:43.817Z,96.39
2022-10-09T06:44:01.910Z,96.24
2022-10-09T06:50:04.147Z,95.19
2022-10-09T06:56:06.938Z,95.59
2022-10-09T07:02:09.386Z,95.53
2022-10-09T07:08:11.306Z,95.51
2022-10-09T07:14:16.026Z,95.58
2022-10-09T07:20:18.028Z,94.99
2022-10-09T07:26:26.810Z,94.98
2022-10-09T07:32:28.813Z,95.79
2022-10-09T07:38:31.112Z,96.13
2022-10-09T07:44:33.980Z,95.97
2022-10-09T07:50:36.443Z,95.98
2022-10-09T07:56:38.778Z,96.94
2022-10-09T08:02:40.687Z,99.63
2022-10-09T08:08:43.058Z,100.00
2022-10-09T08:14:46.960Z,100.00
2022-10-09T08:21:08.031Z,100.00
2022-10-09T08:27:10.022Z,100.00
2022-10-09T08:33:12.027Z,100.00
2022-10-09T08:39:14.619Z,100.00
2022-10-09T08:45:17.452Z,99.68
2022-10-09T08:51:27.047Z,98.97
2022-10-09T08:57:33.199Z,98.85
2022-10-09T09:03:53.602Z,98.18
2022-10-09T09:10:14.057Z,98.04
2022-10-09T09:23:58.754Z,94.83
2022-10-09T09:30:13.229Z,93.94
2022-10-09T09:36:42.423Z,94.05
2022-10-09T09:42:44.659Z,86.46
2022-10-09T09:48:54.422Z,77.01
2022-10-09T09:55:00.224Z,62.03
2022-10-09T10:07:37.731Z,66.76
2022-10-09T10:13:49.256Z,69.46
2022-10-09T10:19:51.570Z,72.94
2022-10-09T10:25:57.001Z,75.25
2022-10-09T10:40:06.131Z,73.28
2022-10-09T10:46:28.285Z,65.99
2022-10-09T10:53:11.071Z,56.92
2022-10-09T10:59:28.138Z,53.98
2022-10-09T11:05:55.646Z,44.86
2022-10-09T11:12:48.536Z,39.82
2022-10-09T11:19:12.576Z,37.66
2022-10-09T11:25:42.642Z,38.86
2022-10-09T11:31:57.609Z,35.65
2022-10-09T11:38:08.242Z,33.34
2022-10-09T11:44:49.350Z,32.80
2022-10-09T11:51:04.118Z,32.42
2022-10-09T11:57:06.675Z,31.31
2022-10-09T12:03:47.034Z,32.58
2022-10-09T12:09:49.450Z,30.38
2022-10-09T12:15:51.217Z,29.87
2022-10-09T12:22:30.194Z,29.21
2022-10-09T12:28:41.536Z,31.11
2022-10-09T12:34:50.551Z,29.51
2022-10-09T12:40:54.596Z,29.05
2022-10-09T12:47:04.468Z,28.96
2022-10-09T12:53:17.529Z,27.89
2022-10-09T12:59:22.882Z,27.57
2022-10-09T13:05:40.356Z,27.08
2022-10-09T13:11:52.697Z,27.74
2022-10-09T13:18:12.899Z,26.16
2022-10-09T13:24:14.981Z,27.16
2022-10-09T13:30:17.111Z,26.30
2022-10-09T13:36:20.126Z,26.40
2022-10-09T13:42:25.468Z,27.38
2022-10-09T13:48:29.374Z,24.65
2022-10-09T13:54:32.164Z,25.10
2022-10-09T14:00:34.285Z,24.27
2022-10-09T14:06:37.090Z,23.29
2022-10-09T14:12:39.426Z,23.74
2022-10-09T14:18:41.359Z,24.05
2022-10-09T14:25:00.694Z,24.92
2022-10-09T14:31:07.493Z,24.54
2022-10-09T14:37:18.733Z,25.72
2022-10-09T14:43:25.978Z,23.83
2022-10-09T14:49:27.938Z,25.07
2022-10-09T14:55:29.971Z,26.64
2022-10-09T15:01:35.904Z,26.93
2022-10-09T15:07:44.504Z,29.72
2022-10-09T15:13:46.625Z,32.36
2022-10-09T15:19:48.505Z,36.33
2022-10-09T15:25:52.238Z,39.06
2022-10-09T15:31:54.208Z,39.54
2022-10-09T15:37:58.587Z,36.58
2022-10-09T15:44:04.267Z,35.10
2022-10-09T15:50:07.350Z,33.77
2022-10-09T15:56:12.944Z,33.91
2022-10-09T16:02:14.859Z,34.68
2022-10-09T16:08:18.975Z,37.69
2022-10-09T16:14:20.834Z,44.09
2022-10-09T16:20:22.994Z,50.72
2022-10-09T16:26:25.179Z,54.18
2022-10-09T16:32:27.186Z,56.88
2022-10-09T16:38:29.149Z,59.86
2022-10-09T16:44:31.399Z,61.01
2022-10-09T16:50:42.329Z,62.72
2022-10-09T16:56:44.297Z,64.23
2022-10-09T17:02:46.211Z,65.29
2022-10-09T17:08:48.328Z,67.12
2022-10-09T17:14:50.568Z,68.16
2022-10-09T17:20:52.488Z,69.16
2022-10-09T17:26:55.056Z,70.02
2022-10-09T17:32:57.022Z,70.55
2022-10-09T17:38:59.396Z,70.21
2022-10-09T17:45:02.012Z,71.13
2022-10-09T17:51:04.625Z,71.46
2022-10-09T17:57:11.765Z,72.19
2022-10-09T18:03:14.954Z,73.23
2022-10-09T18:09:17.196Z,73.59
2022-10-09T18:15:19.104Z,73.81
2022-10-09T18:21:21.099Z,74.13
2022-10-09T18:34:30.151Z,74.38
2022-10-09T18:40:32.560Z,75.51
2022-10-09T18:47:02.891Z,76.10
2022-10-09T18:53:05.705Z,76.61
2022-10-09T18:59:13.681Z,77.57
2022-10-09T19:05:15.804Z,77.94
2022-10-09T19:11:17.707Z,78.40
2022-10-09T19:17:22.893Z,79.16
2022-10-09T19:23:35.054Z,79.57
2022-10-09T19:29:37.237Z,79.98
2022-10-09T19:42:11.579Z,80.68
2022-10-09T19:48:13.514Z,81.48
2022-10-09T19:54:15.394Z,82.83
2022-10-09T20:06:29.237Z,83.73
2022-10-09T20:12:31.163Z,83.83
2022-10-09T20:18:33.838Z,84.25
2022-10-09T20:24:35.913Z,84.06
2022-10-09T20:30:48.807Z,83.72
2022-10-09T20:36:50.767Z,83.91
2022-10-09T20:42:53.112Z,85.23
2022-10-09T20:48:55.819Z,86.11
2022-10-09T20:54:57.677Z,87.10
2022-10-09T21:01:00.105Z,87.35
2022-10-09T21:07:02.026Z,87.76
2022-10-09T21:13:07.330Z,87.63
2022-10-09T21:19:11.656Z,89.02
2022-10-09T21:25:13.585Z,88.79
2022-10-09T21:31:24.035Z,88.13
2022-10-09T21:37:25.968Z,89.24
2022-10-09T21:43:28.031Z,89.35
2022-10-09T21:49:29.988Z,89.83
2022-10-09T21:55:31.988Z,89.52
2022-10-09T22:01:34.132Z,89.34
2022-10-09T22:07:36.212Z,91.03
2022-10-09T22:13:39.133Z,90.64
2022-10-09T22:19:41.338Z,90.94
2022-10-09T22:25:43.385Z,91.45
2022-10-09T22:31:45.324Z,91.86
2022-10-09T22:37:47.539Z,92.02
2022-10-09T22:43:53.156Z,92.44
2022-10-09T22:49:57.837Z,92.98
2022-10-09T22:55:59.812Z,93.04
2022-10-09T23:02:01.793Z,91.76
2022-10-09T23:08:03.777Z,92.85
2022-10-09T23:14:07.092Z,92.79
2022-10-09T23:20:10.392Z,92.23
2022-10-09T23:26:19.034Z,92.74
2022-10-09T23:32:20.958Z,92.67
2022-10-09T23:38:23.497Z,92.24
2022-10-09T23:44:25.398Z,91.35
2022-10-09T23:50:27.753Z,90.86
2022-10-09T23:56:35.428Z,91.57
